Flight Track Log - Related Links

Times and Time Zones

All times are in EDT time to prevent confusion due to time zone crossing. See the N80KW flight status page for this flight to view local times or setup timezone preferences in your user account.

Time Position Orientation Groundspeed Altitude Reporting Facility
EDT Latitude Longitude Course Direction KTS MPH feet Rate Location/Type
Thu 11:11:53 AM 31.1206 -81.2739 196° South 178 205 6,600  Level Jacksonville Center
Thu 11:12:34 AM 31.0894 -81.2842 196° South 175 201 6,600  Level Jacksonville Center
Thu 11:13:29 AM 31.0478 -81.2969 195° South 174 200 6,600 -49 Level Jacksonville Center
Thu 11:14:36 AM 30.9958 -81.3197 201° Southwest 173 199 6,500  Descending Jacksonville Center
Thu 11:15:37 AM 30.9503 -81.3422 203° Southwest 175 201 6,600  Climbing Jacksonville Center
Thu 11:16:33 AM 30.9067 -81.3575 197° South 176 203 6,500 -51 Descending Jacksonville Center
Thu 11:17:34 AM 30.8631 -81.3753 199° South 175 201 6,500 49 Level Jacksonville Center
Thu 11:18:35 AM 30.8172 -81.3953 201° Southwest 172 198 6,600 47 Climbing Jacksonville Center
Thu 11:19:42 AM 30.7653 -81.4178 200° South 171 197 6,600  Level Jacksonville Center
Thu 11:20:53 AM 30.7114 -81.4403 200° South 178 205 6,600 -49 Level Jacksonville Center
Thu 11:21:44 AM 30.6739 -81.4531 196° South 173 199 6,500 -54 Descending Jacksonville Center
Thu 11:22:45 AM 30.6261 -81.4756 202° Southwest 174 200 6,500 52 Level Jacksonville Center
Thu 11:23:40 AM 30.5844 -81.4906 197° South 174 200 6,600 49 Climbing Jacksonville Center
Thu 11:24:47 AM 30.5347 -81.5106 199° South 174 200 6,600  Level Jacksonville Center
Thu 11:25:48 AM 30.4869 -81.5306 200° South 175 201 6,600  Level Jacksonville Center
Thu 11:26:50 AM 30.4411 -81.5506 201° Southwest 177 204 6,600 146 Level Jacksonville Center
Thu 11:27:51 AM 30.3933 -81.5681 198° South 165 190 6,900 344 Climbing Jacksonville Center
Thu 11:28:52 AM 30.3539 -81.5856 201° Southwest 155 178 7,300 393 Climbing Jacksonville Center
Thu 11:29:53 AM 30.3122 -81.6053 202° Southwest 154 177 7,700 443 Climbing Jacksonville Center
Thu 11:30:54 AM 30.2728 -81.6203 198° South 154 177 8,200 492 Climbing Jacksonville Center
Thu 11:31:55 AM 30.2292 -81.6400 201° Southwest 158 182 8,700 148 Climbing Jacksonville Center
Thu 11:32:56 AM 30.1833 -81.6597 200° South 178 205 8,500 -98 Descending Jacksonville Center
Thu 11:33:57 AM 30.1375 -81.6797 201° Southwest 176 203 8,500  Level Jacksonville Center
Thu 11:34:58 AM 30.0875 -81.6947 195° South 173 199 8,500  Level Jacksonville Center
Thu 11:35:59 AM 30.0419 -81.7144 201° Southwest 174 200 8,500  Level Jacksonville Center
Thu 11:36:54 AM 30.0022 -81.7317 201° Southwest 174 200 8,500  Level Jacksonville Center
Thu 11:37:55 AM 29.9567 -81.7492 198° South 175 201 8,500  Level Jacksonville Center
Thu 11:38:56 AM 29.9044 -81.7544 185° South 175 201 8,500  Level Jacksonville Center
Thu 11:40:03 AM 29.8522 -81.7622 187° South 174 200 8,500  Level Jacksonville Center
Thu 11:41:04 AM 29.8042 -81.7606 178° South 174 200 8,500  Level Jacksonville Center
Thu 11:42:06 AM 29.7564 -81.7778 197° South 170 196 8,500  Level Jacksonville Center
Thu 11:43:06 AM 29.7192 -81.8117 218° Southwest 170 196 8,500  Level Jacksonville Center
Thu 11:44:02 AM 29.6858 -81.8358 212° Southwest 170 196 8,500  Level Jacksonville Center
Thu 11:45:03 AM 29.6508 -81.8722 222° Southwest 171 197 8,500  Level Jacksonville Center
Thu 11:46:04 AM 29.6092 -81.9108 219° Southwest 170 196 8,500  Level Jacksonville Center
Thu 11:47:11 AM 29.5656 -81.9447 214° Southwest 170 196 8,500  Level Jacksonville Center
Thu 11:48:12 AM 29.5264 -81.9761 215° Southwest 173 199 8,500  Level Jacksonville Center
Thu 11:49:13 AM 29.4825 -82.0050 210° Southwest 174 200 8,500  Level Jacksonville Center
Thu 11:50:14 AM 29.4431 -82.0317 210° Southwest 173 199 8,500  Level Jacksonville Center
Thu 11:51:16 AM 29.4017 -82.0606 211° Southwest 174 200 8,500 49 Level Jacksonville Center
Thu 11:52:17 AM 29.3578 -82.0872 208° Southwest 173 199 8,600  Climbing Jacksonville Center
Thu 11:53:18 AM 29.3058 -82.1044 196° South 172 198 8,500 -49 Descending Jacksonville Center
Thu 11:54:19 AM 29.2622 -82.1214 199° South 173 199 8,500  Level Jacksonville Center
Thu 11:55:19 AM 29.2164 -82.1383 198° South 173 199 8,500  Level Jacksonville Center
Thu 11:56:21 AM 29.1683 -82.1506 193° South 172 198 8,500  Level Jacksonville Center
Thu 11:57:22 AM 29.1225 -82.1675 198° South 170 196 8,500  Level Jacksonville Center
Thu 11:58:23 AM 29.0725 -82.1797 192° South 170 196 8,500  Level Jacksonville Center
Thu 11:59:24 AM 29.0286 -82.1944 196° South 171 197 8,500  Level Jacksonville Center
Thu 12:00:25 PM 28.9828 -82.2114 198° South 172 198 8,500  Level Jacksonville Center
Thu 12:01:26 PM 28.9369 -82.2283 198° South 171 197 8,500  Level Jacksonville Center
Thu 12:02:27 PM 28.8869 -82.2406 192° South 171 197 8,500  Level Jacksonville Center
Thu 12:03:34 PM 28.8392 -82.2597 199° South 171 197 8,500  Level Jacksonville Center
Thu 12:05:18 PM 28.7667 -82.2833 196° South 173 199 8,500  Level Tampa TRACON
Thu 12:06:18 PM 28.7167 -82.3000 196° South 173 199 8,500  Level Tampa TRACON
Thu 12:07:18 PM 28.6667 -82.3167 196° South 170 196 8,500  Level Tampa TRACON
Thu 12:08:24 PM 28.6333 -82.3500 221° Southwest 177 204 8,500  Level Tampa TRACON
Thu 12:09:24 PM 28.6000 -82.4000 233° Southwest 173 199 8,500  Level Tampa TRACON
Thu 12:10:18 PM 28.5833 -82.4333 240° Southwest 171 197 8,500  Level Tampa TRACON
Thu 12:11:18 PM 28.5500 -82.4833 233° Southwest 171 197 8,500  Level Tampa TRACON
Thu 12:13:00 PM 28.4696 -82.4981 189° South  Level Estimated
Thu 12:20:00 PM 28.1387 -82.5589 189° South  Level Estimated
Thu 12:21:00 PM 28.0914 -82.5675 189° South  Level Estimated
Thu 12:22:00 PM 28.0441 -82.5762 189° South  Level Estimated
Thu 12:23:00 PM 27.9968 -82.5848 189° South  Level Estimated
Thu 12:24:00 PM 27.9496 -82.5934 189° South  Level Estimated
Thu 12:25:00 PM 27.9023 -82.6020 189° South  Level Estimated
Thu 12:26:00 PM 27.8550 -82.6106 189° South  Level Estimated
Thu 12:27:00 PM 27.8077 -82.6192 189° South  Level Estimated
Thu 12:28:00 PM 27.7651 -82.6270 189° South  Level Estimated
Thu 12:29:00 PM 27.7651 -82.6270 299° West  Level Estimated
Thu 12:30:00 PM 27.7651 -82.6270 299° West  Level Estimated
Thu 12:31:00 PM 27.7651 -82.6270 299° West  Level Estimated
Thu 12:32:00 PM 27.7651 -82.6270 299° West  Level Estimated
Thu 12:33:00 PM 27.7651 -82.6270 299° West  Level Estimated
Thu 12:34:00 PM 27.7651 -82.6270 299° West  Level Estimated
Thu 12:35:00 PM 27.7651 -82.6270 299° West  Level Estimated
Thu 12:36:00 PM 27.7651 -82.6270 299° West  Level Estimated
Thu 12:37:00 PM 27.7651 -82.6270 299° West  Level Estimated
Thu 12:38:00 PM 27.7651 -82.6270 299° West  Level Estimated

Login

Don't have an account? Register now (free) for customized features, flight alerts, and more!